Time,TemperatureF,DewpointF,PressureIn,WindDirection,WindDirectionDegrees,WindSpeedMPH,WindSpeedGustMPH,Humidity,HourlyPrecipIn,Conditions,Clouds,dailyrainin,SolarRadiationWatts/m^2,SoftwareType,DateUTC
2013-02-04 00:00:00,32.4,24.0,30.09,ESE,117,1.0,2.0,71,0.00,CLR,,0.00,0.0,WeatherDisplay:10.37,2013-02-04 06:00:00,
2013-02-04 00:10:00,32.8,24.1,30.09,ESE,117,2.0,3.0,70,0.00,CLR,,0.00,0.0,WeatherDisplay:10.37,2013-02-04 06:10:00,
2013-02-04 00:20:00,32.7,24.0,30.08,ESE,117,1.0,2.0,70,0.00,CLR,,0.00,0.0,WeatherDisplay:10.37,2013-02-04 06:20:00,
2013-02-04 00:30:00,32.7,24.3,30.08,SE,125,1.0,3.0,71,0.00,CLR,,0.00,0.0,WeatherDisplay:10.37,2013-02-04 06:30:00,
2013-02-04 00:40:00,32.6,24.5,30.08,SE,144,1.0,2.0,72,0.00,CLR,,0.00,0.0,WeatherDisplay:10.37,2013-02-04 06:40:00,
2013-02-04 00:50:00,32.7,24.7,30.08,SE,138,1.0,2.0,72,0.00,CLR,,0.00,0.0,WeatherDisplay:10.37,2013-02-04 06:50:00,
2013-02-04 01:00:00,32.9,24.9,30.08,SE,139,1.0,3.0,72,0.00,CLR,,0.00,0.0,WeatherDisplay:10.37,2013-02-04 07:00:00,
2013-02-04 01:10:00,32.8,24.8,30.08,SE,144,1.0,3.0,72,0.00,CLR,,0.00,0.0,WeatherDisplay:10.37,2013-02-04 07:10:00,
2013-02-04 01:20:00,32.7,24.6,30.08,SE,146,0.0,3.0,72,0.00,CLR,,0.00,0.0,WeatherDisplay:10.37,2013-02-04 07:20:00,
2013-02-04 01:30:00,32.5,24.5,30.08,SE,146,0.0,1.0,72,0.00,CLR,,0.00,0.0,WeatherDisplay:10.37,2013-02-04 07:30:00,
2013-02-04 01:40:00,32.2,24.5,30.07,SE,127,0.0,1.0,73,0.00,CLR,,0.00,0.0,WeatherDisplay:10.37,2013-02-04 07:40:00,
2013-02-04 01:50:00,32.1,24.7,30.07,SE,128,0.0,1.0,74,0.00,CLR,,0.00,0.0,WeatherDisplay:10.37,2013-02-04 07:50:00,
2013-02-04 02:00:00,32.3,24.6,30.07,ESE,121,1.0,2.0,73,0.00,CLR,,0.00,0.0,WeatherDisplay:10.37,2013-02-04 08:00:00,
2013-02-04 02:10:00,32.4,25.0,30.07,ESE,120,0.0,2.0,74,0.00,CLR,,0.00,0.0,WeatherDisplay:10.37,2013-02-04 08:10:00,
2013-02-04 02:20:00,32.3,24.9,30.06,ESE,121,1.0,2.0,74,0.00,CLR,,0.00,0.0,WeatherDisplay:10.37,2013-02-04 08:20:00,
2013-02-04 02:30:00,32.3,24.9,30.06,SE,128,1.0,3.0,74,0.00,CLR,,0.00,0.0,WeatherDisplay:10.37,2013-02-04 08:30:00,
2013-02-04 02:40:00,32.4,25.0,30.06,SE,133,1.0,2.0,74,0.00,CLR,,0.00,0.0,WeatherDisplay:10.37,2013-02-04 08:40:00,
2013-02-04 02:50:00,32.6,25.2,30.06,SE,130,1.0,3.0,74,0.00,CLR,,0.00,0.0,WeatherDisplay:10.37,2013-02-04 08:50:00,
2013-02-04 03:00:00,32.7,25.3,30.05,SE,131,1.0,3.0,74,0.00,CLR,,0.00,0.0,WeatherDisplay:10.37,2013-02-04 09:00:00,
2013-02-04 03:10:00,32.6,25.6,30.05,SE,136,1.0,2.0,75,0.00,CLR,,0.00,0.0,WeatherDisplay:10.37,2013-02-04 09:10:00,
2013-02-04 03:20:00,32.6,25.6,30.05,SE,144,1.0,3.0,75,0.00,CLR,,0.00,0.0,WeatherDisplay:10.37,2013-02-04 09:20:00,
2013-02-04 03:30:00,32.6,25.6,30.04,SE,140,1.0,2.0,75,0.00,CLR,,0.00,0.0,WeatherDisplay:10.37,2013-02-04 09:30:00,
2013-02-04 03:40:00,32.7,26.0,30.04,SE,143,1.0,3.0,76,0.00,CLR,,0.00,0.0,WeatherDisplay:10.37,2013-02-04 09:40:00,
2013-02-04 03:50:00,33.0,26.2,30.03,SE,132,1.0,3.0,76,0.00,CLR,,0.00,0.0,WeatherDisplay:10.37,2013-02-04 09:50:00,
2013-02-04 04:00:00,33.0,26.3,30.03,SE,136,1.0,3.0,76,0.00,CLR,,0.00,0.0,WeatherDisplay:10.37,2013-02-04 10:00:00,
2013-02-04 04:10:00,33.0,26.6,30.03,SSE,150,1.0,3.0,77,0.00,CLR,,0.00,0.0,WeatherDisplay:10.37,2013-02-04 10:10:00,
2013-02-04 04:20:00,33.0,26.6,30.02,SSE,150,2.0,4.0,77,0.00,CLR,,0.00,0.0,WeatherDisplay:10.37,2013-02-04 10:20:00,
2013-02-04 04:30:00,33.7,27.2,30.02,SSE,158,3.0,7.0,77,0.00,CLR,,0.00,0.0,WeatherDisplay:10.37,2013-02-04 10:30:00,
2013-02-04 04:40:00,34.4,27.3,30.01,SSE,149,5.0,7.0,75,0.00,CLR,,0.00,0.0,WeatherDisplay:10.37,2013-02-04 10:40:00,
2013-02-04 04:50:00,34.8,27.4,30.01,SSE,147,5.0,8.0,74,0.00,CLR,,0.00,0.0,WeatherDisplay:10.37,2013-02-04 10:50:00,
2013-02-04 05:00:00,35.1,27.7,30.01,SE,144,5.0,7.0,74,0.00,CLR,,0.00,0.0,WeatherDisplay:10.37,2013-02-04 11:00:00,
2013-02-04 05:10:00,35.4,27.9,30.01,SE,146,5.0,8.0,74,0.00,CLR,,0.00,0.0,WeatherDisplay:10.37,2013-02-04 11:10:00,
2013-02-04 05:20:00,35.6,28.1,30.00,SE,143,5.0,7.0,74,0.00,CLR,,0.00,0.0,WeatherDisplay:10.37,2013-02-04 11:20:00,
2013-02-04 05:30:00,35.7,28.5,30.00,SE,144,5.0,7.0,75,0.00,CLR,,0.00,0.0,WeatherDisplay:10.37,2013-02-04 11:30:00,
2013-02-04 05:40:00,36.0,28.5,29.99,SE,143,5.0,8.0,74,0.00,CLR,,0.00,0.0,WeatherDisplay:10.37,2013-02-04 11:40:00,
2013-02-04 05:50:00,36.3,28.8,29.99,SE,143,6.0,10.0,74,0.00,CLR,,0.00,0.0,WeatherDisplay:10.37,2013-02-04 11:50:00,
2013-02-04 06:00:00,36.5,29.0,29.99,SSE,152,3.0,9.0,74,0.00,CLR,,0.00,0.0,WeatherDisplay:10.37,2013-02-04 12:00:00,
2013-02-04 06:10:00,36.7,29.2,29.99,SSE,151,5.0,7.0,74,0.00,CLR,,0.00,0.0,WeatherDisplay:10.37,2013-02-04 12:10:00,
2013-02-04 06:20:00,36.9,29.4,29.98,SE,137,6.0,8.0,74,0.00,CLR,,0.00,0.0,WeatherDisplay:10.37,2013-02-04 12:20:00,
2013-02-04 06:30:00,37.1,29.6,29.98,SE,146,5.0,7.0,74,0.00,CLR,,0.00,0.0,WeatherDisplay:10.37,2013-02-04 12:30:00,
2013-02-04 06:40:00,37.4,29.5,29.98,SSE,148,5.0,7.0,73,0.00,CLR,,0.00,0.0,WeatherDisplay:10.37,2013-02-04 12:40:00,
2013-02-04 06:50:00,37.6,29.7,29.98,SSE,148,3.0,8.0,73,0.00,CLR,,0.00,0.0,WeatherDisplay:10.37,2013-02-04 12:50:00,
2013-02-04 07:00:00,37.7,29.8,29.98,SSE,148,3.0,8.0,73,0.00,CLR,,0.00,0.0,WeatherDisplay:10.37,2013-02-04 13:00:00,
2013-02-04 07:10:00,37.8,29.9,29.97,SE,141,3.0,7.0,73,0.00,CLR,,0.00,0.0,WeatherDisplay:10.37,2013-02-04 13:10:00,
2013-02-04 07:20:00,37.9,30.0,29.98,SSE,148,5.0,8.0,73,0.00,CLR,,0.00,0.0,WeatherDisplay:10.37,2013-02-04 13:20:00,
2013-02-04 07:30:00,38.1,30.2,29.97,SSE,150,5.0,8.0,73,0.00,CLR,,0.00,0.0,WeatherDisplay:10.37,2013-02-04 13:30:00,
2013-02-04 07:40:00,38.3,30.1,29.97,SSE,149,5.0,8.0,72,0.00,CLR,,0.00,0.0,WeatherDisplay:10.37,2013-02-04 13:40:00,
2013-02-04 07:50:00,38.5,30.2,29.97,SSE,154,6.0,9.0,72,0.00,CLR,,0.00,0.0,WeatherDisplay:10.37,2013-02-04 13:50:00,
2013-02-04 08:00:00,38.7,30.4,29.97,SSE,153,3.0,6.0,72,0.00,CLR,,0.00,0.0,WeatherDisplay:10.37,2013-02-04 14:00:00,
2013-02-04 08:10:00,38.9,31.0,29.98,SSE,155,3.0,7.0,73,0.00,CLR,,0.00,0.0,WeatherDisplay:10.37,2013-02-04 14:10:00,
2013-02-04 08:20:00,39.2,30.9,29.98,South,170,3.0,9.0,72,0.00,CLR,,0.00,0.0,WeatherDisplay:10.37,2013-02-04 14:20:00,
2013-02-04 08:30:00,39.7,31.1,29.97,South,169,5.0,12.0,71,0.00,OVC,,0.00,0.0,WeatherDisplay:10.37,2013-02-04 14:30:00,
2013-02-04 08:40:00,40.3,31.3,29.98,SSE,166,5.0,7.0,70,0.00,OVC,,0.00,0.0,WeatherDisplay:10.37,2013-02-04 14:40:00,
2013-02-04 08:50:00,40.8,31.8,29.98,South,171,3.0,9.0,70,0.00,OVC,,0.00,0.0,WeatherDisplay:10.37,2013-02-04 14:50:00,
2013-02-04 09:00:00,41.5,32.8,29.98,South,190,3.0,7.0,71,0.00,OVC,,0.00,0.0,WeatherDisplay:10.37,2013-02-04 15:00:00,
2013-02-04 09:10:00,42.1,32.7,29.97,South,184,5.0,8.0,69,0.00,OVC,,0.00,0.0,WeatherDisplay:10.37,2013-02-04 15:10:00,
2013-02-04 09:40:00,43.5,32.5,29.97,South,171,6.0,9.0,65,0.00,OVC,,0.00,0.0,WeatherDisplay:10.37,2013-02-04 15:40:00,
2013-02-04 09:50:00,44.1,32.7,29.97,South,183,6.0,12.0,64,0.00,OVC,,0.00,0.0,WeatherDisplay:10.37,2013-02-04 15:50:00,
2013-02-04 10:00:00,44.9,33.1,29.97,South,186,5.0,12.0,63,0.00,OVC,,0.00,0.0,WeatherDisplay:10.37,2013-02-04 16:00:00,
2013-02-04 10:10:00,45.7,33.5,29.97,SSW,198,5.0,12.0,62,0.00,OVC,,0.00,0.0,WeatherDisplay:10.37,2013-02-04 16:10:00,
2013-02-04 10:20:00,47.3,34.1,29.97,SSW,192,6.0,9.0,60,0.00,OVC,,0.00,0.0,WeatherDisplay:10.37,2013-02-04 16:20:00,
2013-02-04 10:30:00,48.5,33.1,29.97,SSW,194,7.0,12.0,55,0.00,OVC,,0.00,0.0,WeatherDisplay:10.37,2013-02-04 16:30:00,
2013-02-04 10:40:00,48.4,32.5,29.96,SSW,203,8.0,12.0,54,0.00,OVC,,0.00,0.0,WeatherDisplay:10.37,2013-02-04 16:40:00,
2013-02-04 10:50:00,48.3,32.4,29.96,SSW,196,9.0,15.0,54,0.00,OVC,,0.00,0.0,WeatherDisplay:10.37,2013-02-04 16:50:00,
2013-02-04 11:00:00,48.4,32.5,29.96,SSW,208,9.0,16.0,54,0.00,OVC,,0.00,0.0,WeatherDisplay:10.37,2013-02-04 17:00:00,
2013-02-04 11:10:00,48.7,32.3,29.96,SSW,207,9.0,15.0,53,0.00,OVC,,0.00,0.0,WeatherDisplay:10.37,2013-02-04 17:10:00,
2013-02-04 11:20:00,49.3,32.9,29.96,SW,214,8.0,14.0,53,0.00,OVC,,0.00,0.0,WeatherDisplay:10.37,2013-02-04 17:20:00,
2013-02-04 11:30:00,49.5,32.1,29.96,SW,222,8.0,16.0,51,0.00,OVC,,0.00,0.0,WeatherDisplay:10.37,2013-02-04 17:30:00,
2013-02-04 11:40:00,49.6,31.7,29.96,SW,221,9.0,16.0,50,0.00,OVC,,0.00,0.0,WeatherDisplay:10.37,2013-02-04 17:40:00,
2013-02-04 11:50:00,49.7,32.8,29.96,SW,230,8.0,15.0,52,0.00,OVC,,0.00,0.0,WeatherDisplay:10.37,2013-02-04 17:50:00,
2013-02-04 12:00:00,49.8,33.8,29.96,SW,223,6.0,12.0,54,0.00,OVC,,0.00,0.0,WeatherDisplay:10.37,2013-02-04 18:00:00,
2013-02-04 12:10:00,49.7,33.7,29.96,SW,224,7.0,12.0,54,0.00,OVC,,0.00,0.0,WeatherDisplay:10.37,2013-02-04 18:10:00,
2013-02-04 12:20:00,49.3,34.7,29.95,SW,219,6.0,12.0,57,0.00,OVC,,0.00,0.0,WeatherDisplay:10.37,2013-02-04 18:20:00,
2013-02-04 12:30:00,49.1,34.5,29.94,SW,225,8.0,12.0,57,0.00,OVC,,0.00,0.0,WeatherDisplay:10.37,2013-02-04 18:30:00,
2013-02-04 12:40:00,48.5,35.7,29.94,SW,232,6.0,12.0,61,0.00,OVC,,0.00,0.0,WeatherDisplay:10.37,2013-02-04 18:40:00,
2013-02-04 12:50:00,47.6,37.9,29.94,SW,231,5.0,9.0,69,0.01,RA,,0.01,0.0,WeatherDisplay:10.37,2013-02-04 18:50:00,
2013-02-04 13:00:00,46.6,38.4,29.93,SW,232,3.0,9.0,73,0.00,OVC,,0.01,0.0,WeatherDisplay:10.37,2013-02-04 19:00:00,
2013-02-04 13:10:00,46.1,38.3,29.93,SW,227,5.0,9.0,74,0.01,RA,,0.02,0.0,WeatherDisplay:10.37,2013-02-04 19:10:00,
2013-02-04 13:20:00,45.4,39.0,29.93,SW,216,5.0,9.0,78,0.00,OVC,,0.02,0.0,WeatherDisplay:10.37,2013-02-04 19:20:00,
2013-02-04 13:30:00,45.1,39.9,29.93,SSW,205,3.0,8.0,82,0.00,OVC,,0.02,0.0,WeatherDisplay:10.37,2013-02-04 19:30:00,
2013-02-04 13:40:00,44.3,38.8,29.93,SSW,208,6.0,12.0,81,0.01,RA,,0.03,0.0,WeatherDisplay:10.37,2013-02-04 19:40:00,
2013-02-04 13:50:00,43.8,39.2,29.92,SW,220,6.0,10.0,84,0.01,RA,,0.04,0.0,WeatherDisplay:10.37,2013-02-04 19:50:00,
2013-02-04 14:00:00,43.4,39.2,29.92,SW,215,7.0,10.0,85,0.01,RA,,0.05,0.0,WeatherDisplay:10.37,2013-02-04 20:00:00,
2013-02-04 14:10:00,43.2,39.3,29.92,SW,222,7.0,12.0,86,0.00,OVC,,0.05,0.0,WeatherDisplay:10.37,2013-02-04 20:10:00,
2013-02-04 14:20:00,43.2,39.3,29.91,SW,223,7.0,12.0,86,0.01,RA,,0.06,0.0,WeatherDisplay:10.37,2013-02-04 20:20:00,
2013-02-04 14:30:00,43.2,39.2,29.91,SW,215,7.0,12.0,86,0.01,RA,,0.07,0.0,WeatherDisplay:10.37,2013-02-04 20:30:00,
2013-02-04 14:40:00,43.2,39.3,29.90,SW,224,6.0,9.0,86,0.00,OVC,,0.07,0.0,WeatherDisplay:10.37,2013-02-04 20:40:00,
2013-02-04 14:50:00,43.3,39.7,29.90,SSW,211,6.0,10.0,87,0.00,OVC,,0.07,0.0,WeatherDisplay:10.37,2013-02-04 20:50:00,
2013-02-04 15:00:00,43.5,39.9,29.90,SSW,209,5.0,10.0,87,0.01,RA,,0.08,0.0,WeatherDisplay:10.37,2013-02-04 21:00:00,
2013-02-04 15:10:00,43.9,40.0,29.90,SSW,212,5.0,9.0,86,0.00,OVC,,0.08,0.0,WeatherDisplay:10.37,2013-02-04 21:10:00,
2013-02-04 15:20:00,44.1,39.9,29.90,SW,222,3.0,8.0,85,0.00,OVC,,0.08,0.0,WeatherDisplay:10.37,2013-02-04 21:20:00,
2013-02-04 15:30:00,44.2,40.3,29.89,SW,214,3.0,7.0,86,0.00,OVC,,0.08,0.0,WeatherDisplay:10.37,2013-02-04 21:30:00,
2013-02-04 15:40:00,44.4,40.1,29.90,SW,216,5.0,7.0,85,0.00,OVC,,0.08,0.0,WeatherDisplay:10.37,2013-02-04 21:40:00,
2013-02-04 15:50:00,44.5,40.0,29.90,SW,221,5.0,6.0,84,0.00,OVC,,0.08,0.0,WeatherDisplay:10.37,2013-02-04 21:50:00,
2013-02-04 16:00:00,44.5,40.3,29.90,SW,224,2.0,6.0,85,0.00,OVC,,0.08,0.0,WeatherDisplay:10.37,2013-02-04 22:00:00,
2013-02-04 16:10:00,44.4,40.2,29.90,SW,217,2.0,6.0,85,0.00,OVC,,0.08,0.0,WeatherDisplay:10.37,2013-02-04 22:10:00,
2013-02-04 16:20:00,44.3,40.1,29.90,SW,217,2.0,4.0,85,0.00,OVC,,0.08,0.0,WeatherDisplay:10.37,2013-02-04 22:20:00,
2013-02-04 16:30:00,44.3,40.4,29.89,SSW,199,2.0,4.0,86,0.00,OVC,,0.08,0.0,WeatherDisplay:10.37,2013-02-04 22:30:00,
2013-02-04 16:40:00,44.3,40.4,29.89,SSW,202,1.0,3.0,86,0.00,OVC,,0.08,0.0,WeatherDisplay:10.37,2013-02-04 22:40:00,
2013-02-04 16:50:00,44.1,40.5,29.89,SSW,197,2.0,3.0,87,0.00,OVC,,0.08,0.0,WeatherDisplay:10.37,2013-02-04 22:50:00,
2013-02-04 17:00:00,44.0,40.4,29.88,SSW,199,1.0,3.0,87,0.00,OVC,,0.08,0.0,WeatherDisplay:10.37,2013-02-04 23:00:00,
2013-02-04 17:10:00,44.2,40.5,29.88,SSW,196,2.0,4.0,87,0.00,OVC,,0.08,0.0,WeatherDisplay:10.37,2013-02-04 23:10:00,
2013-02-04 17:20:00,44.4,40.4,29.89,SSW,212,3.0,5.0,86,0.00,OVC,,0.08,0.0,WeatherDisplay:10.37,2013-02-04 23:20:00,
2013-02-04 17:30:00,45.2,40.3,29.88,SW,216,5.0,9.0,83,0.00,OVC,,0.08,0.0,WeatherDisplay:10.37,2013-02-04 23:30:00,
2013-02-04 17:40:00,45.5,40.3,29.88,SSW,212,5.0,7.0,82,0.00,OVC,,0.08,0.0,WeatherDisplay:10.37,2013-02-04 23:40:00,
2013-02-04 17:50:00,45.6,40.4,29.88,SSW,210,5.0,7.0,82,0.00,OVC,,0.08,0.0,WeatherDisplay:10.37,2013-02-04 23:50:00,
2013-02-04 18:00:00,45.8,40.3,29.89,SW,219,3.0,6.0,81,0.00,OVC,,0.08,0.0,WeatherDisplay:10.37,2013-02-05 00:00:00,
2013-02-04 18:10:00,45.9,40.4,29.89,WSW,239,2.0,6.0,81,0.00,OVC,,0.08,0.0,WeatherDisplay:10.37,2013-02-05 00:10:00,
2013-02-04 18:20:00,46.0,40.5,29.90,West,259,2.0,6.0,81,0.00,OVC,,0.08,0.0,WeatherDisplay:10.37,2013-02-05 00:20:00,
2013-02-04 18:30:00,45.9,40.4,29.90,WSW,255,1.0,3.0,81,0.00,OVC,,0.08,0.0,WeatherDisplay:10.37,2013-02-05 00:30:00,
2013-02-04 18:40:00,45.9,40.4,29.90,SW,233,2.0,3.0,81,0.00,OVC,,0.08,0.0,WeatherDisplay:10.37,2013-02-05 00:40:00,
2013-02-04 18:50:00,45.5,40.7,29.90,South,188,2.0,4.0,83,0.00,OVC,,0.08,0.0,WeatherDisplay:10.37,2013-02-05 00:50:00,
2013-02-04 19:00:00,45.5,40.3,29.90,South,191,2.0,5.0,82,0.00,OVC,,0.08,0.0,WeatherDisplay:10.37,2013-02-05 01:00:00,
2013-02-04 19:10:00,45.6,40.4,29.90,SSW,202,5.0,7.0,82,0.00,OVC,,0.08,0.0,WeatherDisplay:10.37,2013-02-05 01:10:00,
2013-02-04 19:20:00,45.7,40.5,29.90,SSW,202,3.0,6.0,82,0.00,OVC,,0.08,0.0,WeatherDisplay:10.37,2013-02-05 01:20:00,
2013-02-04 19:30:00,45.6,40.7,29.90,SSW,198,3.0,6.0,83,0.00,OVC,,0.08,0.0,WeatherDisplay:10.37,2013-02-05 01:30:00,
2013-02-04 19:40:00,45.5,40.9,29.90,South,191,2.0,5.0,84,0.00,OVC,,0.08,0.0,WeatherDisplay:10.37,2013-02-05 01:40:00,
2013-02-04 19:50:00,45.6,40.7,29.90,SSW,194,2.0,6.0,83,0.00,OVC,,0.08,0.0,WeatherDisplay:10.37,2013-02-05 01:50:00,
2013-02-04 20:00:00,45.6,40.7,29.90,SSW,196,3.0,6.0,83,0.00,OVC,,0.08,0.0,WeatherDisplay:10.37,2013-02-05 02:00:00,
2013-02-04 20:10:00,45.7,40.8,29.90,SSW,202,3.0,7.0,83,0.00,OVC,,0.08,0.0,WeatherDisplay:10.37,2013-02-05 02:10:00,
2013-02-04 20:20:00,45.6,40.7,29.90,South,189,2.0,5.0,83,0.00,OVC,,0.08,0.0,WeatherDisplay:10.37,2013-02-05 02:20:00,
2013-02-04 20:30:00,45.5,40.6,29.90,South,187,1.0,4.0,83,0.00,OVC,,0.08,0.0,WeatherDisplay:10.37,2013-02-05 02:30:00,
2013-02-04 20:40:00,45.5,40.6,29.90,SSW,192,3.0,5.0,83,0.00,OVC,,0.08,0.0,WeatherDisplay:10.37,2013-02-05 02:40:00,
2013-02-04 20:50:00,45.4,40.6,29.91,SSW,196,2.0,5.0,83,0.00,OVC,,0.08,0.0,WeatherDisplay:10.37,2013-02-05 02:50:00,
2013-02-04 21:00:00,45.1,40.6,29.91,SSW,196,2.0,4.0,84,0.00,OVC,,0.08,0.0,WeatherDisplay:10.37,2013-02-05 03:00:00,
2013-02-04 21:10:00,45.0,40.5,29.91,SSW,200,3.0,5.0,84,0.00,OVC,,0.08,0.0,WeatherDisplay:10.37,2013-02-05 03:10:00,
2013-02-04 21:20:00,44.5,40.3,29.91,SSW,197,2.0,5.0,85,0.00,OVC,,0.08,0.0,WeatherDisplay:10.37,2013-02-05 03:20:00,
2013-02-04 21:30:00,44.4,40.2,29.91,SSW,200,2.0,4.0,85,0.00,OVC,,0.08,0.0,WeatherDisplay:10.37,2013-02-05 03:30:00,
2013-02-04 21:40:00,44.2,40.0,29.91,SSW,198,2.0,5.0,85,0.00,OVC,,0.08,0.0,WeatherDisplay:10.37,2013-02-05 03:40:00,
2013-02-04 21:50:00,44.0,39.8,29.91,SSW,195,2.0,4.0,85,0.00,OVC,,0.08,0.0,WeatherDisplay:10.37,2013-02-05 03:50:00,
2013-02-04 22:00:00,43.3,39.4,29.90,South,188,1.0,4.0,86,0.00,OVC,,0.08,0.0,WeatherDisplay:10.37,2013-02-05 04:00:00,
2013-02-04 22:10:00,42.9,39.3,29.90,SSW,197,1.0,2.0,87,0.00,OVC,,0.08,0.0,WeatherDisplay:10.37,2013-02-05 04:10:00,
2013-02-04 22:20:00,42.8,39.5,29.90,SSW,194,1.0,3.0,88,0.00,OVC,,0.08,0.0,WeatherDisplay:10.37,2013-02-05 04:20:00,
2013-02-04 22:30:00,42.9,39.6,29.90,SSW,198,1.0,2.0,88,0.00,BKN,,0.08,0.0,WeatherDisplay:10.37,2013-02-05 04:30:00,
2013-02-04 22:40:00,42.7,39.4,29.91,SSW,198,0.0,2.0,88,0.00,BKN,,0.08,0.0,WeatherDisplay:10.37,2013-02-05 04:40:00,
2013-02-04 22:50:00,42.2,39.2,29.92,SSW,197,0.0,1.0,89,0.00,BKN,,0.08,0.0,WeatherDisplay:10.37,2013-02-05 04:50:00,
2013-02-04 23:00:00,42.2,39.2,29.92,SSW,197,0.0,0.0,89,0.00,BKN,,0.08,0.0,WeatherDisplay:10.37,2013-02-05 05:00:00,
2013-02-04 23:10:00,42.5,39.5,29.92,SSW,201,0.0,1.0,89,0.00,SCT,,0.08,0.0,WeatherDisplay:10.37,2013-02-05 05:10:00,
2013-02-04 23:20:00,42.5,39.5,29.92,West,277,0.0,1.0,89,0.00,SCT,,0.08,0.0,WeatherDisplay:10.37,2013-02-05 05:20:00,
2013-02-04 23:30:00,42.1,39.4,29.92,West,276,0.0,0.0,90,0.00,SCT,,0.08,0.0,WeatherDisplay:10.37,2013-02-05 05:30:00,
2013-02-04 23:40:00,41.7,39.0,29.92,West,276,0.0,1.0,90,0.00,SCT,,0.08,0.0,WeatherDisplay:10.37,2013-02-05 05:40:00,
2013-02-04 23:50:00,41.5,39.1,29.92,West,276,0.0,0.0,91,0.00,SCT,,0.08,0.0,WeatherDisplay:10.37,2013-02-05 05:50:00,